sensor_id;sensor_type;location;lat;lon;timestamp;P1;durP1;ratioP1;P2;durP2;ratioP2
51304;SDS011;37392;50.964;6.952;2023-06-24T00:00:59;17.02;;;10.73;;
51304;SDS011;37392;50.964;6.952;2023-06-24T00:03:24;21.50;;;11.50;;
51304;SDS011;37392;50.964;6.952;2023-06-24T00:05:50;17.20;;;10.07;;
51304;SDS011;37392;50.964;6.952;2023-06-24T00:08:16;20.02;;;10.68;;
51304;SDS011;37392;50.964;6.952;2023-06-24T00:10:48;17.00;;;10.80;;
51304;SDS011;37392;50.964;6.952;2023-06-24T00:13:17;16.85;;;10.68;;
51304;SDS011;37392;50.964;6.952;2023-06-24T00:15:43;20.15;;;11.27;;
51304;SDS011;37392;50.964;6.952;2023-06-24T00:18:11;17.40;;;10.85;;
51304;SDS011;37392;50.964;6.952;2023-06-24T00:20:38;15.50;;;10.32;;
51304;SDS011;37392;50.964;6.952;2023-06-24T00:23:03;20.77;;;10.25;;
51304;SDS011;37392;50.964;6.952;2023-06-24T00:25:31;23.92;;;10.30;;
51304;SDS011;37392;50.964;6.952;2023-06-24T00:27:57;22.95;;;9.95;;
51304;SDS011;37392;50.964;6.952;2023-06-24T00:30:23;17.77;;;11.18;;
51304;SDS011;37392;50.964;6.952;2023-06-24T00:32:48;18.70;;;11.20;;
51304;SDS011;37392;50.964;6.952;2023-06-24T00:35:14;21.77;;;13.75;;
51304;SDS011;37392;50.964;6.952;2023-06-24T00:37:40;14.98;;;11.65;;
51304;SDS011;37392;50.964;6.952;2023-06-24T00:40:08;16.52;;;10.63;;
51304;SDS011;37392;50.964;6.952;2023-06-24T00:42:39;22.52;;;11.98;;
51304;SDS011;37392;50.964;6.952;2023-06-24T00:45:07;16.83;;;10.43;;
51304;SDS011;37392;50.964;6.952;2023-06-24T00:47:35;23.63;;;10.95;;
51304;SDS011;37392;50.964;6.952;2023-06-24T00:50:01;15.52;;;10.60;;
51304;SDS011;37392;50.964;6.952;2023-06-24T00:52:26;16.15;;;11.00;;
51304;SDS011;37392;50.964;6.952;2023-06-24T00:54:52;20.13;;;11.95;;
51304;SDS011;37392;50.964;6.952;2023-06-24T00:57:17;17.90;;;10.75;;
51304;SDS011;37392;50.964;6.952;2023-06-24T00:59:49;20.05;;;11.07;;
51304;SDS011;37392;50.964;6.952;2023-06-24T01:02:18;17.88;;;11.07;;
51304;SDS011;37392;50.964;6.952;2023-06-24T01:04:46;18.63;;;11.02;;
51304;SDS011;37392;50.964;6.952;2023-06-24T01:07:13;19.63;;;11.13;;
51304;SDS011;37392;50.964;6.952;2023-06-24T01:09:39;15.70;;;11.07;;
51304;SDS011;37392;50.964;6.952;2023-06-24T01:12:06;18.50;;;10.32;;
51304;SDS011;37392;50.964;6.952;2023-06-24T01:14:33;18.90;;;12.50;;
51304;SDS011;37392;50.964;6.952;2023-06-24T01:17:05;18.13;;;11.30;;
51304;SDS011;37392;50.964;6.952;2023-06-24T01:34:43;24.92;;;11.27;;
51304;SDS011;37392;50.964;6.952;2023-06-24T01:37:26;16.13;;;10.77;;
51304;SDS011;37392;50.964;6.952;2023-06-24T01:40:11;18.58;;;11.55;;
51304;SDS011;37392;50.964;6.952;2023-06-24T01:42:42;18.45;;;11.93;;
51304;SDS011;37392;50.964;6.952;2023-06-24T01:45:12;20.38;;;11.25;;
51304;SDS011;37392;50.964;6.952;2023-06-24T01:47:43;19.90;;;12.30;;
51304;SDS011;37392;50.964;6.952;2023-06-24T01:50:12;23.52;;;12.52;;
51304;SDS011;37392;50.964;6.952;2023-06-24T01:52:41;16.63;;;10.90;;
51304;SDS011;37392;50.964;6.952;2023-06-24T01:55:09;24.65;;;11.68;;
51304;SDS011;37392;50.964;6.952;2023-06-24T01:57:37;22.10;;;12.63;;
51304;SDS011;37392;50.964;6.952;2023-06-24T02:00:07;20.70;;;11.07;;
51304;SDS011;37392;50.964;6.952;2023-06-24T02:02:35;17.55;;;10.98;;
51304;SDS011;37392;50.964;6.952;2023-06-24T02:05:02;15.73;;;11.10;;
51304;SDS011;37392;50.964;6.952;2023-06-24T02:07:29;17.90;;;10.68;;
51304;SDS011;37392;50.964;6.952;2023-06-24T02:09:56;18.73;;;11.23;;
51304;SDS011;37392;50.964;6.952;2023-06-24T02:12:24;17.88;;;11.13;;
51304;SDS011;37392;50.964;6.952;2023-06-24T02:14:52;15.98;;;11.23;;
51304;SDS011;37392;50.964;6.952;2023-06-24T02:17:20;15.38;;;10.82;;
51304;SDS011;37392;50.964;6.952;2023-06-24T02:19:49;16.48;;;10.82;;
51304;SDS011;37392;50.964;6.952;2023-06-24T02:22:17;21.17;;;11.48;;
51304;SDS011;37392;50.964;6.952;2023-06-24T02:24:43;17.73;;;11.02;;
51304;SDS011;37392;50.964;6.952;2023-06-24T02:27:10;15.88;;;10.57;;
51304;SDS011;37392;50.964;6.952;2023-06-24T02:29:37;21.70;;;11.30;;
51304;SDS011;37392;50.964;6.952;2023-06-24T02:32:05;13.65;;;9.73;;
51304;SDS011;37392;50.964;6.952;2023-06-24T02:34:32;17.85;;;10.95;;
51304;SDS011;37392;50.964;6.952;2023-06-24T02:36:57;14.15;;;10.48;;
51304;SDS011;37392;50.964;6.952;2023-06-24T02:39:23;15.73;;;10.05;;
51304;SDS011;37392;50.964;6.952;2023-06-24T02:41:48;23.33;;;12.02;;
51304;SDS011;37392;50.964;6.952;2023-06-24T02:44:14;16.20;;;11.13;;
51304;SDS011;37392;50.964;6.952;2023-06-24T02:46:42;19.65;;;11.57;;
51304;SDS011;37392;50.964;6.952;2023-06-24T02:49:09;16.52;;;10.38;;
51304;SDS011;37392;50.964;6.952;2023-06-24T02:51:38;15.35;;;10.38;;
51304;SDS011;37392;50.964;6.952;2023-06-24T02:54:05;15.65;;;10.63;;
51304;SDS011;37392;50.964;6.952;2023-06-24T02:56:31;19.02;;;10.20;;
51304;SDS011;37392;50.964;6.952;2023-06-24T02:58:58;15.20;;;10.20;;
51304;SDS011;37392;50.964;6.952;2023-06-24T03:01:24;17.10;;;11.25;;
51304;SDS011;37392;50.964;6.952;2023-06-24T03:03:55;18.85;;;11.23;;
51304;SDS011;37392;50.964;6.952;2023-06-24T03:06:21;18.88;;;10.90;;
51304;SDS011;37392;50.964;6.952;2023-06-24T03:08:48;17.83;;;10.25;;
51304;SDS011;37392;50.964;6.952;2023-06-24T03:11:15;17.23;;;10.13;;
51304;SDS011;37392;50.964;6.952;2023-06-24T03:13:41;15.55;;;11.02;;
51304;SDS011;37392;50.964;6.952;2023-06-24T03:16:08;24.35;;;11.43;;
51304;SDS011;37392;50.964;6.952;2023-06-24T03:18:37;22.40;;;12.93;;
51304;SDS011;37392;50.964;6.952;2023-06-24T03:21:08;13.13;;;10.02;;
51304;SDS011;37392;50.964;6.952;2023-06-24T03:23:35;16.90;;;11.15;;
51304;SDS011;37392;50.964;6.952;2023-06-24T03:26:00;16.15;;;11.52;;
51304;SDS011;37392;50.964;6.952;2023-06-24T03:28:28;17.85;;;10.93;;
51304;SDS011;37392;50.964;6.952;2023-06-24T03:30:57;17.70;;;11.48;;
51304;SDS011;37392;50.964;6.952;2023-06-24T03:33:23;21.75;;;10.25;;
51304;SDS011;37392;50.964;6.952;2023-06-24T03:35:49;18.73;;;10.70;;
51304;SDS011;37392;50.964;6.952;2023-06-24T03:38:16;15.40;;;11.05;;
51304;SDS011;37392;50.964;6.952;2023-06-24T03:40:41;16.42;;;11.73;;
51304;SDS011;37392;50.964;6.952;2023-06-24T03:43:08;16.42;;;11.07;;
51304;SDS011;37392;50.964;6.952;2023-06-24T03:45:34;20.17;;;11.23;;
51304;SDS011;37392;50.964;6.952;2023-06-24T03:48:00;16.50;;;10.50;;
51304;SDS011;37392;50.964;6.952;2023-06-24T03:50:25;17.48;;;10.07;;
51304;SDS011;37392;50.964;6.952;2023-06-24T03:52:51;13.45;;;10.18;;
51304;SDS011;37392;50.964;6.952;2023-06-24T03:55:16;15.60;;;10.70;;
51304;SDS011;37392;50.964;6.952;2023-06-24T03:57:42;13.82;;;10.25;;
51304;SDS011;37392;50.964;6.952;2023-06-24T04:00:08;12.90;;;9.00;;
51304;SDS011;37392;50.964;6.952;2023-06-24T04:02:42;17.67;;;11.00;;
51304;SDS011;37392;50.964;6.952;2023-06-24T04:05:08;16.73;;;10.95;;
51304;SDS011;37392;50.964;6.952;2023-06-24T04:07:35;23.67;;;11.50;;
51304;SDS011;37392;50.964;6.952;2023-06-24T04:10:02;15.07;;;10.13;;
51304;SDS011;37392;50.964;6.952;2023-06-24T04:12:35;21.75;;;10.98;;
51304;SDS011;37392;50.964;6.952;2023-06-24T04:15:02;19.38;;;9.27;;
51304;SDS011;37392;50.964;6.952;2023-06-24T04:17:28;15.68;;;10.23;;
51304;SDS011;37392;50.964;6.952;2023-06-24T04:19:55;18.60;;;10.65;;
51304;SDS011;37392;50.964;6.952;2023-06-24T04:22:21;14.25;;;9.85;;
51304;SDS011;37392;50.964;6.952;2023-06-24T04:24:46;21.98;;;9.40;;
51304;SDS011;37392;50.964;6.952;2023-06-24T04:27:12;16.90;;;9.68;;
51304;SDS011;37392;50.964;6.952;2023-06-24T04:29:37;13.95;;;9.40;;
51304;SDS011;37392;50.964;6.952;2023-06-24T04:32:03;13.82;;;9.05;;
51304;SDS011;37392;50.964;6.952;2023-06-24T04:34:29;16.85;;;8.23;;
51304;SDS011;37392;50.964;6.952;2023-06-24T04:36:55;16.17;;;7.45;;
51304;SDS011;37392;50.964;6.952;2023-06-24T04:39:20;12.43;;;7.90;;
51304;SDS011;37392;50.964;6.952;2023-06-24T04:41:46;11.70;;;7.75;;
51304;SDS011;37392;50.964;6.952;2023-06-24T04:44:12;13.00;;;8.10;;
51304;SDS011;37392;50.964;6.952;2023-06-24T04:46:37;15.43;;;8.55;;
51304;SDS011;37392;50.964;6.952;2023-06-24T04:49:04;18.10;;;7.47;;
51304;SDS011;37392;50.964;6.952;2023-06-24T04:51:30;12.75;;;7.47;;
51304;SDS011;37392;50.964;6.952;2023-06-24T04:53:57;9.77;;;7.03;;
51304;SDS011;37392;50.964;6.952;2023-06-24T04:56:22;13.02;;;6.97;;
51304;SDS011;37392;50.964;6.952;2023-06-24T04:58:48;9.85;;;6.70;;
51304;SDS011;37392;50.964;6.952;2023-06-24T05:01:14;13.38;;;6.35;;
51304;SDS011;37392;50.964;6.952;2023-06-24T05:03:39;10.75;;;6.93;;
51304;SDS011;37392;50.964;6.952;2023-06-24T05:06:05;11.05;;;6.13;;
51304;SDS011;37392;50.964;6.952;2023-06-24T05:08:30;15.30;;;7.65;;
51304;SDS011;37392;50.964;6.952;2023-06-24T05:10:56;10.15;;;6.95;;
51304;SDS011;37392;50.964;6.952;2023-06-24T05:13:21;9.57;;;6.35;;
51304;SDS011;37392;50.964;6.952;2023-06-24T05:15:48;11.55;;;7.00;;
51304;SDS011;37392;50.964;6.952;2023-06-24T05:18:13;8.32;;;5.85;;
51304;SDS011;37392;50.964;6.952;2023-06-24T05:20:39;13.80;;;6.90;;
51304;SDS011;37392;50.964;6.952;2023-06-24T05:23:04;15.40;;;6.70;;
51304;SDS011;37392;50.964;6.952;2023-06-24T05:25:30;15.25;;;7.00;;
51304;SDS011;37392;50.964;6.952;2023-06-24T05:27:55;11.45;;;7.45;;
51304;SDS011;37392;50.964;6.952;2023-06-24T05:30:21;15.15;;;8.93;;
51304;SDS011;37392;50.964;6.952;2023-06-24T05:32:46;7.60;;;6.60;;
51304;SDS011;37392;50.964;6.952;2023-06-24T05:35:12;8.48;;;6.32;;
51304;SDS011;37392;50.964;6.952;2023-06-24T05:37:37;9.88;;;6.68;;
51304;SDS011;37392;50.964;6.952;2023-06-24T05:40:03;14.60;;;7.32;;
51304;SDS011;37392;50.964;6.952;2023-06-24T05:42:30;9.95;;;6.20;;
51304;SDS011;37392;50.964;6.952;2023-06-24T05:44:55;11.80;;;6.10;;
51304;SDS011;37392;50.964;6.952;2023-06-24T05:47:21;18.73;;;6.75;;
51304;SDS011;37392;50.964;6.952;2023-06-24T05:49:46;9.82;;;7.35;;
51304;SDS011;37392;50.964;6.952;2023-06-24T05:52:12;11.30;;;6.30;;
51304;SDS011;37392;50.964;6.952;2023-06-24T05:54:37;11.07;;;6.68;;
51304;SDS011;37392;50.964;6.952;2023-06-24T05:57:03;9.52;;;5.70;;
51304;SDS011;37392;50.964;6.952;2023-06-24T05:59:32;12.45;;;6.60;;
51304;SDS011;37392;50.964;6.952;2023-06-24T06:01:58;15.60;;;6.50;;
51304;SDS011;37392;50.964;6.952;2023-06-24T06:04:26;23.02;;;7.35;;
51304;SDS011;37392;50.964;6.952;2023-06-24T06:06:52;13.50;;;6.60;;
51304;SDS011;37392;50.964;6.952;2023-06-24T06:09:18;9.93;;;6.57;;
51304;SDS011;37392;50.964;6.952;2023-06-24T06:11:43;13.63;;;7.85;;
51304;SDS011;37392;50.964;6.952;2023-06-24T06:14:09;12.82;;;6.22;;
51304;SDS011;37392;50.964;6.952;2023-06-24T06:16:35;13.48;;;6.10;;
51304;SDS011;37392;50.964;6.952;2023-06-24T06:19:00;16.33;;;7.45;;
51304;SDS011;37392;50.964;6.952;2023-06-24T06:21:26;12.05;;;6.07;;
51304;SDS011;37392;50.964;6.952;2023-06-24T06:23:51;14.70;;;6.63;;
51304;SDS011;37392;50.964;6.952;2023-06-24T06:26:18;13.10;;;5.32;;
51304;SDS011;37392;50.964;6.952;2023-06-24T06:28:44;17.92;;;8.15;;
51304;SDS011;37392;50.964;6.952;2023-06-24T06:31:09;11.30;;;6.55;;
51304;SDS011;37392;50.964;6.952;2023-06-24T06:33:38;11.50;;;5.97;;
51304;SDS011;37392;50.964;6.952;2023-06-24T06:36:04;10.65;;;7.13;;
51304;SDS011;37392;50.964;6.952;2023-06-24T06:38:31;13.05;;;6.68;;
51304;SDS011;37392;50.964;6.952;2023-06-24T06:40:58;7.78;;;5.85;;
51304;SDS011;37392;50.964;6.952;2023-06-24T06:43:24;13.50;;;7.95;;
51304;SDS011;37392;50.964;6.952;2023-06-24T06:45:49;19.48;;;6.85;;
51304;SDS011;37392;50.964;6.952;2023-06-24T06:48:15;11.68;;;6.63;;
51304;SDS011;37392;50.964;6.952;2023-06-24T06:50:40;7.65;;;5.80;;
51304;SDS011;37392;50.964;6.952;2023-06-24T06:53:06;18.73;;;7.25;;
51304;SDS011;37392;50.964;6.952;2023-06-24T06:55:32;15.52;;;7.00;;
51304;SDS011;37392;50.964;6.952;2023-06-24T06:57:57;17.83;;;11.35;;
51304;SDS011;37392;50.964;6.952;2023-06-24T07:00:23;11.73;;;6.47;;
51304;SDS011;37392;50.964;6.952;2023-06-24T07:02:48;13.45;;;7.53;;
51304;SDS011;37392;50.964;6.952;2023-06-24T07:05:14;8.88;;;6.03;;
51304;SDS011;37392;50.964;6.952;2023-06-24T07:07:40;15.57;;;9.52;;
51304;SDS011;37392;50.964;6.952;2023-06-24T07:10:06;15.02;;;8.27;;
51304;SDS011;37392;50.964;6.952;2023-06-24T07:12:32;10.70;;;6.85;;
51304;SDS011;37392;50.964;6.952;2023-06-24T07:14:58;8.63;;;4.93;;
51304;SDS011;37392;50.964;6.952;2023-06-24T07:17:23;10.55;;;7.78;;
51304;SDS011;37392;50.964;6.952;2023-06-24T07:19:49;19.85;;;8.57;;
51304;SDS011;37392;50.964;6.952;2023-06-24T07:22:14;8.75;;;5.55;;
51304;SDS011;37392;50.964;6.952;2023-06-24T07:24:41;16.27;;;5.03;;
51304;SDS011;37392;50.964;6.952;2023-06-24T07:27:07;7.57;;;4.70;;
51304;SDS011;37392;50.964;6.952;2023-06-24T07:29:33;9.07;;;5.15;;
51304;SDS011;37392;50.964;6.952;2023-06-24T07:31:59;11.85;;;6.32;;
51304;SDS011;37392;50.964;6.952;2023-06-24T07:34:25;15.00;;;5.35;;
51304;SDS011;37392;50.964;6.952;2023-06-24T07:36:50;8.38;;;4.00;;
51304;SDS011;37392;50.964;6.952;2023-06-24T07:39:16;10.07;;;6.45;;
51304;SDS011;37392;50.964;6.952;2023-06-24T07:41:42;12.45;;;5.07;;
51304;SDS011;37392;50.964;6.952;2023-06-24T07:44:08;10.25;;;4.50;;
51304;SDS011;37392;50.964;6.952;2023-06-24T07:46:34;10.70;;;4.75;;
51304;SDS011;37392;50.964;6.952;2023-06-24T07:49:00;9.18;;;4.38;;
51304;SDS011;37392;50.964;6.952;2023-06-24T07:51:26;8.23;;;4.20;;
51304;SDS011;37392;50.964;6.952;2023-06-24T07:53:52;6.82;;;4.82;;
51304;SDS011;37392;50.964;6.952;2023-06-24T07:56:18;14.05;;;8.10;;
51304;SDS011;37392;50.964;6.952;2023-06-24T07:58:43;12.40;;;4.22;;
51304;SDS011;37392;50.964;6.952;2023-06-24T08:01:09;8.75;;;4.28;;
51304;SDS011;37392;50.964;6.952;2023-06-24T08:03:35;7.97;;;4.50;;
51304;SDS011;37392;50.964;6.952;2023-06-24T08:06:02;10.35;;;3.95;;
51304;SDS011;37392;50.964;6.952;2023-06-24T08:08:28;7.30;;;4.47;;
51304;SDS011;37392;50.964;6.952;2023-06-24T08:10:54;7.03;;;4.15;;
51304;SDS011;37392;50.964;6.952;2023-06-24T08:13:20;5.90;;;3.63;;
51304;SDS011;37392;50.964;6.952;2023-06-24T08:15:46;7.45;;;4.45;;
51304;SDS011;37392;50.964;6.952;2023-06-24T08:18:12;10.32;;;4.13;;
51304;SDS011;37392;50.964;6.952;2023-06-24T08:20:37;8.98;;;4.50;;
51304;SDS011;37392;50.964;6.952;2023-06-24T08:23:03;9.20;;;4.63;;
51304;SDS011;37392;50.964;6.952;2023-06-24T08:25:29;11.00;;;6.50;;
51304;SDS011;37392;50.964;6.952;2023-06-24T08:27:55;9.35;;;3.63;;
51304;SDS011;37392;50.964;6.952;2023-06-24T08:30:21;13.32;;;5.35;;
51304;SDS011;37392;50.964;6.952;2023-06-24T08:32:46;9.80;;;4.18;;
51304;SDS011;37392;50.964;6.952;2023-06-24T08:35:12;10.95;;;4.72;;
51304;SDS011;37392;50.964;6.952;2023-06-24T08:37:38;6.57;;;4.18;;
51304;SDS011;37392;50.964;6.952;2023-06-24T08:40:05;8.85;;;5.72;;
51304;SDS011;37392;50.964;6.952;2023-06-24T08:42:31;6.05;;;4.85;;
51304;SDS011;37392;50.964;6.952;2023-06-24T08:44:57;9.73;;;5.40;;
51304;SDS011;37392;50.964;6.952;2023-06-24T08:47:25;7.93;;;4.90;;
51304;SDS011;37392;50.964;6.952;2023-06-24T08:50:12;17.83;;;6.45;;
51304;SDS011;37392;50.964;6.952;2023-06-24T08:52:40;14.90;;;4.50;;
51304;SDS011;37392;50.964;6.952;2023-06-24T08:55:12;10.25;;;4.80;;
51304;SDS011;37392;50.964;6.952;2023-06-24T08:57:41;8.07;;;4.82;;
51304;SDS011;37392;50.964;6.952;2023-06-24T09:00:07;11.02;;;3.97;;
51304;SDS011;37392;50.964;6.952;2023-06-24T09:02:37;6.93;;;5.10;;
51304;SDS011;37392;50.964;6.952;2023-06-24T09:05:06;10.02;;;5.00;;
51304;SDS011;37392;50.964;6.952;2023-06-24T09:07:33;9.85;;;5.22;;
51304;SDS011;37392;50.964;6.952;2023-06-24T09:09:59;9.57;;;4.80;;
51304;SDS011;37392;50.964;6.952;2023-06-24T09:12:30;10.35;;;5.32;;
51304;SDS011;37392;50.964;6.952;2023-06-24T09:14:58;10.65;;;5.35;;
51304;SDS011;37392;50.964;6.952;2023-06-24T09:17:23;8.25;;;4.38;;
51304;SDS011;37392;50.964;6.952;2023-06-24T09:19:49;12.25;;;5.25;;
51304;SDS011;37392;50.964;6.952;2023-06-24T09:22:16;12.25;;;5.05;;
51304;SDS011;37392;50.964;6.952;2023-06-24T09:24:44;7.57;;;6.03;;
51304;SDS011;37392;50.964;6.952;2023-06-24T09:27:12;7.55;;;5.18;;
51304;SDS011;37392;50.964;6.952;2023-06-24T09:29:45;7.28;;;4.53;;
51304;SDS011;37392;50.964;6.952;2023-06-24T09:32:12;11.85;;;4.53;;
51304;SDS011;37392;50.964;6.952;2023-06-24T09:34:38;7.97;;;3.78;;
51304;SDS011;37392;50.964;6.952;2023-06-24T09:37:04;9.48;;;5.07;;
51304;SDS011;37392;50.964;6.952;2023-06-24T09:39:34;12.90;;;4.60;;
51304;SDS011;37392;50.964;6.952;2023-06-24T09:42:03;6.68;;;4.80;;
51304;SDS011;37392;50.964;6.952;2023-06-24T09:44:29;6.80;;;4.38;;
51304;SDS011;37392;50.964;6.952;2023-06-24T09:46:55;5.63;;;3.63;;
51304;SDS011;37392;50.964;6.952;2023-06-24T09:49:22;12.18;;;5.30;;
51304;SDS011;37392;50.964;6.952;2023-06-24T09:51:51;7.00;;;3.88;;
51304;SDS011;37392;50.964;6.952;2023-06-24T09:54:21;8.27;;;3.80;;
51304;SDS011;37392;50.964;6.952;2023-06-24T09:59:18;9.98;;;4.93;;
51304;SDS011;37392;50.964;6.952;2023-06-24T10:01:47;8.20;;;4.32;;
51304;SDS011;37392;50.964;6.952;2023-06-24T10:04:17;7.95;;;3.83;;
51304;SDS011;37392;50.964;6.952;2023-06-24T10:06:45;4.20;;;3.25;;
51304;SDS011;37392;50.964;6.952;2023-06-24T10:09:11;8.15;;;4.22;;
51304;SDS011;37392;50.964;6.952;2023-06-24T10:11:38;5.20;;;4.13;;
51304;SDS011;37392;50.964;6.952;2023-06-24T10:14:05;13.45;;;4.80;;
51304;SDS011;37392;50.964;6.952;2023-06-24T10:16:31;8.98;;;5.43;;
51304;SDS011;37392;50.964;6.952;2023-06-24T10:19:00;12.55;;;6.55;;
51304;SDS011;37392;50.964;6.952;2023-06-24T10:24:32;7.40;;;3.50;;
51304;SDS011;37392;50.964;6.952;2023-06-24T10:27:04;3.80;;;3.03;;
51304;SDS011;37392;50.964;6.952;2023-06-24T10:29:45;5.80;;;3.55;;
51304;SDS011;37392;50.964;6.952;2023-06-24T10:32:13;8.02;;;3.20;;
51304;SDS011;37392;50.964;6.952;2023-06-24T10:34:39;10.82;;;3.80;;
51304;SDS011;37392;50.964;6.952;2023-06-24T10:37:11;8.98;;;3.40;;
51304;SDS011;37392;50.964;6.952;2023-06-24T10:40:00;5.80;;;4.15;;
51304;SDS011;37392;50.964;6.952;2023-06-24T10:47:35;6.30;;;3.38;;
51304;SDS011;37392;50.964;6.952;2023-06-24T10:50:06;6.28;;;3.97;;
51304;SDS011;37392;50.964;6.952;2023-06-24T10:52:40;8.57;;;3.42;;
51304;SDS011;37392;50.964;6.952;2023-06-24T10:55:08;5.82;;;3.60;;
51304;SDS011;37392;50.964;6.952;2023-06-24T10:57:34;5.57;;;3.80;;
51304;SDS011;37392;50.964;6.952;2023-06-24T11:00:01;5.38;;;3.53;;
51304;SDS011;37392;50.964;6.952;2023-06-24T11:02:28;4.97;;;2.80;;
51304;SDS011;37392;50.964;6.952;2023-06-24T11:04:58;6.28;;;3.50;;
51304;SDS011;37392;50.964;6.952;2023-06-24T11:07:26;4.57;;;3.40;;
51304;SDS011;37392;50.964;6.952;2023-06-24T11:09:56;7.35;;;4.18;;
51304;SDS011;37392;50.964;6.952;2023-06-24T11:12:26;9.25;;;3.33;;
51304;SDS011;37392;50.964;6.952;2023-06-24T11:14:56;3.92;;;2.38;;
51304;SDS011;37392;50.964;6.952;2023-06-24T11:17:24;8.43;;;5.88;;
51304;SDS011;37392;50.964;6.952;2023-06-24T11:19:52;6.53;;;3.40;;
51304;SDS011;37392;50.964;6.952;2023-06-24T11:22:22;4.20;;;3.15;;
51304;SDS011;37392;50.964;6.952;2023-06-24T11:24:48;6.43;;;3.10;;
51304;SDS011;37392;50.964;6.952;2023-06-24T11:27:15;9.82;;;3.83;;
51304;SDS011;37392;50.964;6.952;2023-06-24T11:29:41;6.53;;;4.43;;
51304;SDS011;37392;50.964;6.952;2023-06-24T11:32:07;8.20;;;4.22;;
51304;SDS011;37392;50.964;6.952;2023-06-24T11:34:34;5.13;;;2.58;;
51304;SDS011;37392;50.964;6.952;2023-06-24T11:37:12;6.05;;;3.25;;
51304;SDS011;37392;50.964;6.952;2023-06-24T11:39:39;8.00;;;3.10;;
51304;SDS011;37392;50.964;6.952;2023-06-24T11:42:06;3.03;;;2.40;;
51304;SDS011;37392;50.964;6.952;2023-06-24T11:44:33;6.55;;;2.75;;
51304;SDS011;37392;50.964;6.952;2023-06-24T11:47:04;6.78;;;5.22;;
51304;SDS011;37392;50.964;6.952;2023-06-24T11:49:32;6.88;;;3.80;;
51304;SDS011;37392;50.964;6.952;2023-06-24T11:52:13;8.20;;;4.72;;
51304;SDS011;37392;50.964;6.952;2023-06-24T11:54:40;5.57;;;4.07;;
51304;SDS011;37392;50.964;6.952;2023-06-24T11:57:07;5.57;;;3.63;;
51304;SDS011;37392;50.964;6.952;2023-06-24T11:59:33;4.22;;;3.22;;
51304;SDS011;37392;50.964;6.952;2023-06-24T12:01:58;11.35;;;4.00;;
51304;SDS011;37392;50.964;6.952;2023-06-24T12:04:28;8.07;;;3.70;;
51304;SDS011;37392;50.964;6.952;2023-06-24T12:06:56;13.90;;;5.45;;
51304;SDS011;37392;50.964;6.952;2023-06-24T12:09:22;5.43;;;3.70;;
51304;SDS011;37392;50.964;6.952;2023-06-24T12:11:48;6.28;;;3.60;;
51304;SDS011;37392;50.964;6.952;2023-06-24T12:14:14;7.55;;;3.92;;
51304;SDS011;37392;50.964;6.952;2023-06-24T12:16:40;6.75;;;3.72;;
51304;SDS011;37392;50.964;6.952;2023-06-24T12:19:09;12.48;;;8.57;;
51304;SDS011;37392;50.964;6.952;2023-06-24T12:21:34;10.30;;;5.95;;
51304;SDS011;37392;50.964;6.952;2023-06-24T12:24:01;5.90;;;5.00;;
51304;SDS011;37392;50.964;6.952;2023-06-24T12:26:27;7.88;;;4.70;;
51304;SDS011;37392;50.964;6.952;2023-06-24T12:28:55;6.35;;;4.05;;
51304;SDS011;37392;50.964;6.952;2023-06-24T12:31:21;11.32;;;4.43;;
51304;SDS011;37392;50.964;6.952;2023-06-24T12:33:48;6.65;;;4.88;;
51304;SDS011;37392;50.964;6.952;2023-06-24T12:36:21;7.35;;;4.82;;
51304;SDS011;37392;50.964;6.952;2023-06-24T12:38:47;9.32;;;5.10;;
51304;SDS011;37392;50.964;6.952;2023-06-24T12:41:12;7.97;;;4.22;;
51304;SDS011;37392;50.964;6.952;2023-06-24T12:43:38;6.00;;;4.10;;
51304;SDS011;37392;50.964;6.952;2023-06-24T12:46:04;11.88;;;4.22;;
51304;SDS011;37392;50.964;6.952;2023-06-24T12:48:29;8.57;;;4.03;;
51304;SDS011;37392;50.964;6.952;2023-06-24T12:50:55;7.00;;;4.00;;
51304;SDS011;37392;50.964;6.952;2023-06-24T12:53:20;8.18;;;3.92;;
51304;SDS011;37392;50.964;6.952;2023-06-24T12:55:47;7.00;;;4.72;;
51304;SDS011;37392;50.964;6.952;2023-06-24T12:58:18;10.23;;;4.60;;
51304;SDS011;37392;50.964;6.952;2023-06-24T13:00:48;4.88;;;3.60;;
51304;SDS011;37392;50.964;6.952;2023-06-24T13:03:14;10.55;;;4.65;;
51304;SDS011;37392;50.964;6.952;2023-06-24T13:05:40;5.95;;;4.03;;
51304;SDS011;37392;50.964;6.952;2023-06-24T13:08:05;11.95;;;5.03;;
51304;SDS011;37392;50.964;6.952;2023-06-24T13:10:31;7.30;;;4.78;;
51304;SDS011;37392;50.964;6.952;2023-06-24T13:12:57;6.35;;;4.13;;
51304;SDS011;37392;50.964;6.952;2023-06-24T13:15:23;13.10;;;3.67;;
51304;SDS011;37392;50.964;6.952;2023-06-24T13:17:49;9.23;;;4.35;;
51304;SDS011;37392;50.964;6.952;2023-06-24T13:20:15;8.88;;;4.22;;
51304;SDS011;37392;50.964;6.952;2023-06-24T13:22:41;18.08;;;5.82;;
51304;SDS011;37392;50.964;6.952;2023-06-24T13:25:06;8.07;;;4.68;;
51304;SDS011;37392;50.964;6.952;2023-06-24T13:27:32;9.63;;;4.20;;
51304;SDS011;37392;50.964;6.952;2023-06-24T13:29:58;6.03;;;4.28;;
51304;SDS011;37392;50.964;6.952;2023-06-24T13:32:24;10.02;;;3.97;;
51304;SDS011;37392;50.964;6.952;2023-06-24T13:34:49;8.48;;;3.55;;
51304;SDS011;37392;50.964;6.952;2023-06-24T13:37:15;5.38;;;3.75;;
51304;SDS011;37392;50.964;6.952;2023-06-24T13:39:40;9.38;;;4.95;;
51304;SDS011;37392;50.964;6.952;2023-06-24T13:42:06;6.28;;;3.70;;
51304;SDS011;37392;50.964;6.952;2023-06-24T13:44:32;7.82;;;3.78;;
51304;SDS011;37392;50.964;6.952;2023-06-24T13:46:57;11.85;;;4.40;;
51304;SDS011;37392;50.964;6.952;2023-06-24T13:49:23;11.38;;;3.78;;
51304;SDS011;37392;50.964;6.952;2023-06-24T13:51:48;8.55;;;3.80;;
51304;SDS011;37392;50.964;6.952;2023-06-24T13:54:14;8.40;;;4.60;;
51304;SDS011;37392;50.964;6.952;2023-06-24T13:56:40;6.20;;;3.53;;
51304;SDS011;37392;50.964;6.952;2023-06-24T13:59:05;4.85;;;3.25;;
51304;SDS011;37392;50.964;6.952;2023-06-24T14:01:31;11.40;;;5.00;;
51304;SDS011;37392;50.964;6.952;2023-06-24T14:03:56;7.82;;;4.00;;
51304;SDS011;37392;50.964;6.952;2023-06-24T14:06:22;6.85;;;3.67;;
51304;SDS011;37392;50.964;6.952;2023-06-24T14:08:49;6.00;;;3.35;;
51304;SDS011;37392;50.964;6.952;2023-06-24T14:11:16;8.73;;;4.22;;
51304;SDS011;37392;50.964;6.952;2023-06-24T14:13:42;10.43;;;4.03;;
51304;SDS011;37392;50.964;6.952;2023-06-24T14:16:08;5.72;;;3.78;;
51304;SDS011;37392;50.964;6.952;2023-06-24T14:18:35;10.43;;;4.05;;
51304;SDS011;37392;50.964;6.952;2023-06-24T14:21:02;8.02;;;3.83;;
51304;SDS011;37392;50.964;6.952;2023-06-24T14:23:30;7.28;;;3.42;;
51304;SDS011;37392;50.964;6.952;2023-06-24T14:25:56;5.95;;;4.22;;
51304;SDS011;37392;50.964;6.952;2023-06-24T14:28:23;6.80;;;3.83;;
51304;SDS011;37392;50.964;6.952;2023-06-24T14:30:49;10.88;;;4.75;;
51304;SDS011;37392;50.964;6.952;2023-06-24T14:33:15;8.18;;;3.20;;
51304;SDS011;37392;50.964;6.952;2023-06-24T14:35:41;9.02;;;4.88;;
51304;SDS011;37392;50.964;6.952;2023-06-24T14:38:07;9.10;;;5.97;;
51304;SDS011;37392;50.964;6.952;2023-06-24T14:40:33;9.70;;;4.32;;
51304;SDS011;37392;50.964;6.952;2023-06-24T14:42:58;10.40;;;3.80;;
51304;SDS011;37392;50.964;6.952;2023-06-24T14:45:25;10.73;;;6.55;;
51304;SDS011;37392;50.964;6.952;2023-06-24T14:47:51;3.70;;;2.83;;
51304;SDS011;37392;50.964;6.952;2023-06-24T14:50:16;6.18;;;2.95;;
51304;SDS011;37392;50.964;6.952;2023-06-24T14:52:42;4.50;;;2.80;;
51304;SDS011;37392;50.964;6.952;2023-06-24T14:55:08;4.38;;;2.70;;
51304;SDS011;37392;50.964;6.952;2023-06-24T14:57:34;5.40;;;3.22;;
51304;SDS011;37392;50.964;6.952;2023-06-24T15:00:01;7.47;;;3.83;;